Aviation Digital Data Service (ADDS)

Output produced by TAFs form (2115 UTC 17 January 2017)
found at http://www.aviationweather.gov/adds/tafs/
 
METAR text: NSTU 172052Z 26007KT 12SM SCT021 BKN038 BKN100 30/25 A2969 RMK SHRAE16 SLP056 60000 8/470 T02970249 51003
Conditions at: NSTU (PAGO PAGO , WS) observed 2052 UTC 17 January 2017
Temperature: 29.7°C (85°F)
Dewpoint: 24.9°C (77°F) [RH = 76%]
Pressure (altimeter): 29.69 inches Hg (1005.5 mb)
[Sea-level pressure: 1005.6 mb]
Winds: from the W (260 degrees) at 8 MPH (7 knots; 3.6 m/s)
Visibility: 12 miles (19 km)
Ceiling: 3800 feet AGL
Clouds: scattered clouds at 2100 feet AGL
broken clouds at 3800 feet AGL
broken clouds at 10000 feet AGL
Weather: no significant weather observed at this time

Forecast for: NSTU (PAGO PAGO , WS)
Text: NSTU 171738Z 1718/1818 VRB06KT P6SM VCSH FEW015 BKN040 OVC100
Forecast period: 1800 UTC 17 January 2017 to 1800 UTC 18 January 2017
Forecast type: FROM: standard forecast or significant change
Winds: variable direction winds at 7 MPH (6 knots; 3.1 m/s)
Visibility: 6 or more miles (10+ km)
Ceiling: 4000 feet AGL
Clouds: few clouds at 1500 feet AGL
broken clouds at 4000 feet AGL
overcast cloud deck at 10000 feet AGL
Weather: VCSH  (showers in vicinity)